首页
METAR-TAF:

METAR-TAF

机场 :

雅蒲島國際機場

雅蒲島, 密克罗尼西亚群岛

纬度: 09-29N, 经度: 138-05E, 海拔: 28米

当前天气观测

该预报发布于25分钟前的03:51 UTC
风速7节,风向西转西北
温度 28°C
湿度 79%
气压 1011 hPa
能見度: 19.3公里
散云层高于1600英尺, 塔状积云.
多云层高于13000英尺
阴天层高于30000英尺
附近有阵雨

METAR: PTYA 230351Z 30007KT 12SM VCSH SCT016TCU BKN130 OVC300 28/24 A2985 RMK VCSH NE TCU ALQDS SLP110 T02760237

时间: 14:16 (04:16 UTC)

预报

该预报发布于4小时和56分钟前的23:20 UTC
预报有效从23日的 00点(UTC)到 23日的 24点(UTC)
风速5节,风向多变
能見度: 10公里
少量云层高于1600英尺
散云层高于5000英尺

TAF: PTYA 222320Z 2300/2324 VRB05KT P6SM FEW016 SCT050

超过4000个机场的气象观测和天气预报(METAR&TAF报告)。

可查询的气象台以黄色和红色小点在地图上表示。

将鼠标移到小点上方,可查看气象台名称。

然后点击查看天气观测和预报。

如需切换地图:点击带黑十字的绿色按钮放大地图;点击带横线的绿色按钮缩小地图;或者点击绿色箭头查看邻近地区的地图。


METAR-TAF: